createdAt,value
2018-05-14T00:00:08.572Z,81.50
2018-05-14T00:02:37.025Z,81.50
2018-05-14T00:05:04.556Z,81.70
2018-05-14T00:07:32.897Z,81.90
2018-05-14T00:10:00.432Z,81.90
2018-05-14T00:12:27.957Z,82.20
2018-05-14T00:14:55.532Z,81.90
2018-05-14T00:17:23.078Z,81.70
2018-05-14T00:19:50.613Z,81.40
2018-05-14T00:22:18.203Z,81.40
2018-05-14T00:24:45.736Z,81.20
2018-05-14T00:27:14.029Z,81.50
2018-05-14T00:29:42.394Z,81.70
2018-05-14T00:32:09.924Z,81.60
2018-05-14T00:34:37.453Z,81.70
2018-05-14T00:37:05.793Z,81.90
2018-05-14T00:39:33.324Z,81.90
2018-05-14T00:42:01.617Z,81.90
2018-05-14T00:44:29.188Z,81.90
2018-05-14T00:46:56.717Z,82.20
2018-05-14T00:49:24.278Z,82.40
2018-05-14T00:51:51.828Z,82.40
2018-05-14T00:54:19.355Z,82.50
2018-05-14T00:56:47.649Z,83.60
2018-05-14T00:59:15.347Z,82.90
2018-05-14T01:01:42.871Z,83.30
2018-05-14T01:04:10.399Z,83.40
2018-05-14T01:06:38.052Z,83.70
2018-05-14T01:09:05.549Z,84.10
2018-05-14T01:11:33.093Z,84.10
2018-05-14T01:14:00.664Z,84.30
2018-05-14T01:16:28.200Z,84.60
2018-05-14T01:18:56.634Z,84.80
2018-05-14T01:21:24.213Z,84.80
2018-05-14T01:23:51.745Z,85.00
2018-05-14T01:26:20.045Z,85.00
2018-05-14T01:28:47.627Z,85.00
2018-05-14T01:31:15.161Z,85.00
2018-05-14T01:33:44.249Z,84.90
2018-05-14T01:36:11.828Z,84.90
2018-05-14T01:38:39.377Z,84.80
2018-05-14T01:41:07.608Z,84.80
2018-05-14T01:43:35.218Z,85.00
2018-05-14T01:46:02.740Z,86.00
2018-05-14T01:48:30.273Z,85.40
2018-05-14T01:50:57.846Z,85.40
2018-05-14T01:53:25.372Z,85.50
2018-05-14T01:55:53.665Z,85.80
2018-05-14T01:58:22.001Z,86.10
2018-05-14T02:00:49.526Z,85.90
2018-05-14T02:03:17.824Z,86.40
2018-05-14T02:05:45.399Z,86.40
2018-05-14T02:08:12.933Z,86.60
2018-05-14T02:10:40.471Z,86.80
2018-05-14T02:13:08.141Z,86.90
2018-05-14T02:15:35.669Z,87.00
2018-05-14T02:18:03.973Z,87.20
2018-05-14T02:20:31.545Z,87.10
2018-05-14T02:22:59.074Z,87.20
2018-05-14T02:25:26.599Z,87.20
2018-05-14T02:27:54.173Z,87.30
2018-05-14T02:30:21.704Z,87.40
2018-05-14T02:32:50.003Z,87.50
2018-05-14T02:35:18.338Z,87.20
2018-05-14T02:37:45.860Z,87.20
2018-05-14T02:40:14.157Z,87.30
2018-05-14T02:42:41.729Z,87.30
2018-05-14T02:45:09.281Z,87.10
2018-05-14T02:47:38.504Z,87.20
2018-05-14T02:50:06.870Z,87.30
2018-05-14T02:52:34.407Z,87.30
2018-05-14T02:55:01.962Z,87.30
2018-05-14T02:57:29.551Z,87.40
2018-05-14T02:59:57.091Z,87.40
2018-05-14T03:02:24.661Z,87.30
2018-05-14T03:04:52.276Z,87.10
2018-05-14T03:07:19.783Z,87.30
2018-05-14T03:09:48.086Z,87.30
2018-05-14T03:12:15.711Z,87.30
2018-05-14T03:14:43.311Z,87.10
2018-05-14T03:17:11.705Z,87.30
2018-05-14T03:19:40.042Z,87.50
2018-05-14T03:22:08.401Z,87.50
2018-05-14T03:24:36.733Z,87.70
2018-05-14T03:27:04.309Z,87.70
2018-05-14T03:29:31.872Z,88.00
2018-05-14T03:31:59.397Z,87.90
2018-05-14T03:34:27.027Z,87.90
2018-05-14T03:36:54.713Z,88.00
2018-05-14T03:39:22.322Z,88.10
2018-05-14T03:41:50.658Z,88.00
2018-05-14T03:44:18.181Z,87.90
2018-05-14T03:46:45.776Z,88.00
2018-05-14T03:49:13.350Z,87.80
2018-05-14T03:51:40.889Z,87.40
2018-05-14T03:54:08.470Z,87.30
2018-05-14T03:56:36.053Z,87.20
2018-05-14T03:59:15.381Z,87.00
2018-05-14T04:01:55.569Z,86.90
2018-05-14T04:04:34.914Z,86.80
2018-05-14T04:07:02.487Z,86.10
2018-05-14T04:09:30.021Z,85.10
2018-05-14T04:11:57.561Z,83.90
2018-05-14T04:14:25.221Z,82.60
2018-05-14T04:16:52.798Z,82.00
2018-05-14T04:19:20.406Z,81.20
2018-05-14T04:21:47.934Z,80.40
2018-05-14T04:24:15.501Z,80.00
2018-05-14T04:26:43.079Z,79.20
2018-05-14T04:29:10.749Z,78.70
2018-05-14T04:31:38.641Z,78.20
2018-05-14T04:34:06.169Z,77.80
2018-05-14T04:36:34.681Z,75.10
2018-05-14T04:39:02.210Z,75.10
2018-05-14T04:41:30.509Z,73.10
2018-05-14T04:43:58.863Z,72.60
2018-05-14T04:46:26.424Z,72.50
2018-05-14T04:48:53.949Z,72.10
2018-05-14T04:51:22.308Z,70.20
2018-05-14T04:56:24.288Z,69.10
2018-05-14T04:58:51.828Z,69.00
2018-05-14T05:01:19.353Z,68.70
2018-05-14T05:03:47.082Z,68.60
2018-05-14T05:06:14.664Z,68.30
2018-05-14T05:08:42.192Z,67.60
2018-05-14T05:11:10.520Z,65.70
2018-05-14T05:13:39.540Z,65.40
2018-05-14T05:16:07.087Z,64.90
2018-05-14T05:18:34.672Z,64.60
2018-05-14T05:21:02.224Z,64.50
2018-05-14T05:23:29.748Z,64.10
2018-05-14T05:25:57.318Z,63.30
2018-05-14T05:28:24.855Z,63.50
2018-05-14T05:30:52.422Z,63.40
2018-05-14T05:33:20.100Z,62.30
2018-05-14T05:35:47.679Z,61.70
2018-05-14T05:38:15.237Z,61.10
2018-05-14T05:40:42.823Z,60.00
2018-05-14T05:43:10.361Z,59.70
2018-05-14T05:45:37.890Z,58.40
2018-05-14T05:48:05.536Z,58.50
2018-05-14T05:50:33.100Z,58.80
2018-05-14T05:53:00.633Z,58.50
2018-05-14T05:55:28.972Z,57.80
2018-05-14T05:57:56.554Z,58.40
2018-05-14T06:00:24.093Z,56.60
2018-05-14T06:02:51.744Z,56.00
2018-05-14T06:05:20.059Z,55.90
2018-05-14T06:07:47.621Z,55.90
2018-05-14T06:10:15.220Z,55.60
2018-05-14T06:12:42.781Z,55.40
2018-05-14T06:15:10.321Z,54.70
2018-05-14T06:17:39.585Z,54.60
2018-05-14T06:20:07.129Z,54.50
2018-05-14T06:22:34.671Z,55.60
2018-05-14T06:25:03.008Z,56.10
2018-05-14T06:27:30.582Z,56.10
2018-05-14T06:29:58.167Z,55.40
2018-05-14T06:32:26.538Z,53.60
2018-05-14T06:34:54.077Z,53.60
2018-05-14T06:37:21.673Z,54.00
2018-05-14T06:39:49.334Z,54.40
2018-05-14T06:42:16.871Z,54.10
2018-05-14T06:44:45.205Z,52.80
2018-05-14T06:47:12.781Z,52.80
2018-05-14T06:49:41.020Z,53.60
2018-05-14T06:52:10.241Z,54.00
2018-05-14T06:54:38.654Z,54.80
2018-05-14T06:57:06.242Z,54.80
2018-05-14T06:59:33.826Z,55.40
2018-05-14T07:02:01.410Z,55.90
2018-05-14T07:04:28.956Z,55.80
2018-05-14T07:06:56.497Z,56.10
2018-05-14T07:09:24.083Z,56.30
2018-05-14T07:11:51.621Z,56.90
2018-05-14T07:14:19.969Z,57.20
2018-05-14T07:16:47.607Z,57.20
2018-05-14T07:19:15.256Z,56.10
2018-05-14T07:21:42.816Z,55.60
2018-05-14T07:24:10.393Z,56.20
2018-05-14T07:26:37.920Z,57.10
2018-05-14T07:29:05.469Z,58.00
2018-05-14T07:31:33.056Z,57.30
2018-05-14T07:34:00.584Z,57.40
2018-05-14T07:36:28.994Z,57.80
2018-05-14T07:38:56.602Z,57.70
2018-05-14T07:41:24.144Z,57.60
2018-05-14T07:43:51.678Z,58.00
2018-05-14T07:46:19.305Z,58.20
2018-05-14T07:48:46.849Z,57.60
2018-05-14T07:51:14.390Z,59.20
2018-05-14T07:53:42.004Z,57.40
2018-05-14T07:56:09.948Z,57.50
2018-05-14T07:58:38.177Z,56.00
2018-05-14T08:01:05.759Z,56.00
2018-05-14T08:03:33.298Z,55.60
2018-05-14T08:06:01.707Z,55.00
2018-05-14T08:08:29.297Z,55.00
2018-05-14T08:10:56.828Z,55.40
2018-05-14T08:13:25.153Z,56.30
2018-05-14T08:15:52.736Z,56.20
2018-05-14T08:18:20.267Z,55.60
2018-05-14T08:20:47.797Z,56.00
2018-05-14T08:23:15.427Z,56.60
2018-05-14T08:25:42.964Z,56.20
2018-05-14T08:28:11.306Z,57.30
2018-05-14T08:30:38.894Z,57.30
2018-05-14T08:33:06.430Z,57.00
2018-05-14T08:35:33.973Z,57.20
2018-05-14T08:38:02.313Z,56.20
2018-05-14T08:40:29.889Z,56.00
2018-05-14T08:42:57.452Z,55.90
2018-05-14T08:45:25.022Z,56.10
2018-05-14T08:47:52.591Z,55.00
2018-05-14T08:50:20.120Z,55.70
2018-05-14T08:52:48.703Z,55.90
2018-05-14T08:55:16.312Z,55.80
2018-05-14T08:57:43.919Z,56.30
2018-05-14T09:00:11.451Z,55.90
2018-05-14T09:02:38.981Z,55.10
2018-05-14T09:05:06.528Z,56.60
2018-05-14T09:07:34.185Z,53.80
2018-05-14T09:10:01.709Z,54.10
2018-05-14T09:12:30.050Z,55.30
2018-05-14T09:14:57.628Z,55.30
2018-05-14T09:17:25.183Z,55.30
2018-05-14T09:19:52.708Z,53.50
2018-05-14T09:22:20.286Z,51.60
2018-05-14T09:24:48.621Z,52.70
2018-05-14T09:27:16.145Z,52.60
2018-05-14T09:29:44.485Z,50.50
2018-05-14T09:32:12.016Z,50.40
2018-05-14T09:34:40.397Z,51.90
2018-05-14T09:37:08.737Z,53.00
2018-05-14T09:39:36.274Z,52.90
2018-05-14T09:42:03.805Z,51.10
2018-05-14T09:44:31.397Z,49.50
2018-05-14T09:46:59.707Z,48.80
2018-05-14T09:49:27.253Z,48.80
2018-05-14T09:51:54.820Z,49.30
2018-05-14T09:54:22.358Z,50.70
2018-05-14T09:56:50.017Z,50.00
2018-05-14T09:59:17.620Z,50.60
2018-05-14T10:01:46.056Z,51.20
2018-05-14T10:04:13.641Z,48.90
2018-05-14T10:06:41.212Z,49.00
2018-05-14T10:09:08.743Z,50.30
2018-05-14T10:11:36.274Z,50.90
2018-05-14T10:14:08.756Z,51.60
2018-05-14T10:16:36.306Z,51.90
2018-05-14T10:19:03.829Z,46.30
2018-05-14T10:21:31.492Z,47.40
2018-05-14T10:23:59.039Z,48.60
2018-05-14T10:26:26.612Z,48.00
2018-05-14T10:28:54.186Z,48.50
2018-05-14T10:31:21.726Z,48.60
2018-05-14T10:33:49.307Z,49.20
2018-05-14T10:36:16.873Z,50.20
2018-05-14T10:38:44.404Z,47.70
2018-05-14T10:41:12.029Z,47.90
2018-05-14T10:43:40.529Z,47.50
2018-05-14T10:46:08.107Z,47.00
2018-05-14T10:48:35.761Z,47.40
2018-05-14T10:51:03.333Z,47.30
2018-05-14T10:53:30.917Z,47.60
2018-05-14T10:55:58.488Z,46.70
2018-05-14T10:58:26.054Z,47.00
2018-05-14T11:00:53.618Z,47.60
2018-05-14T11:03:21.160Z,48.20
2018-05-14T11:05:49.501Z,47.70
2018-05-14T11:08:17.057Z,47.70
2018-05-14T11:10:44.601Z,48.50
2018-05-14T11:13:12.940Z,51.00
2018-05-14T11:15:42.089Z,51.10
2018-05-14T11:18:11.306Z,52.40
2018-05-14T11:20:39.644Z,51.80
2018-05-14T11:23:07.203Z,51.80
2018-05-14T11:25:34.761Z,51.80
2018-05-14T11:28:02.334Z,52.40
2018-05-14T11:30:29.875Z,52.40
2018-05-14T11:32:58.199Z,52.30
2018-05-14T11:35:25.815Z,52.20
2018-05-14T11:37:53.333Z,52.60
2018-05-14T11:40:20.869Z,53.10
2018-05-14T11:42:48.445Z,53.70
2018-05-14T11:45:16.744Z,54.50
2018-05-14T11:47:45.045Z,54.90
2018-05-14T11:50:12.609Z,54.80
2018-05-14T11:52:41.840Z,54.70
2018-05-14T11:55:09.372Z,54.70
2018-05-14T11:57:36.978Z,54.20
2018-05-14T12:00:04.513Z,53.20
2018-05-14T12:02:32.040Z,52.80
2018-05-14T12:04:59.621Z,54.40
2018-05-14T12:07:27.145Z,55.60
2018-05-14T12:09:55.445Z,56.90
2018-05-14T12:12:23.018Z,56.90
2018-05-14T12:14:50.726Z,54.60
2018-05-14T12:17:18.273Z,55.20
2018-05-14T12:19:45.870Z,53.50
2018-05-14T12:22:13.413Z,54.70
2018-05-14T12:24:42.298Z,54.10
2018-05-14T12:27:09.911Z,54.00
2018-05-14T12:29:37.472Z,53.90
2018-05-14T12:32:05.079Z,54.10
2018-05-14T12:34:32.687Z,53.90
2018-05-14T12:37:00.245Z,54.00
2018-05-14T12:39:28.547Z,53.30
2018-05-14T12:41:56.219Z,53.20
2018-05-14T12:44:24.061Z,53.10
2018-05-14T12:46:51.655Z,53.60
2018-05-14T12:49:20.030Z,54.10
2018-05-14T12:51:47.584Z,53.60
2018-05-14T12:54:15.131Z,53.90
2018-05-14T12:56:42.725Z,54.10
2018-05-14T12:59:10.248Z,54.20
2018-05-14T13:01:37.840Z,54.20
2018-05-14T13:04:05.416Z,54.60
2018-05-14T13:06:32.948Z,55.20
2018-05-14T13:09:01.244Z,55.10
2018-05-14T13:11:29.596Z,55.00
2018-05-14T13:13:57.133Z,54.90
2018-05-14T13:16:24.661Z,53.40
2018-05-14T13:18:53.085Z,56.60
2018-05-14T13:21:20.621Z,56.90
2018-05-14T13:23:48.148Z,58.00
2018-05-14T13:26:15.741Z,56.20
2018-05-14T13:28:43.292Z,55.50
2018-05-14T13:31:11.773Z,55.30
2018-05-14T13:33:39.369Z,56.90
2018-05-14T13:36:07.007Z,58.10
2018-05-14T13:38:34.492Z,58.30
2018-05-14T13:41:02.091Z,57.10
2018-05-14T13:43:29.725Z,56.50
2018-05-14T13:45:57.305Z,56.60
2018-05-14T13:48:24.896Z,56.60
2018-05-14T13:50:52.491Z,55.90
2018-05-14T13:53:20.022Z,54.90
2018-05-14T13:55:47.700Z,53.80
2018-05-14T13:58:15.269Z,53.50
2018-05-14T14:00:42.814Z,53.40
2018-05-14T14:03:10.403Z,53.20
2018-05-14T14:05:37.949Z,54.70
2018-05-14T14:08:05.473Z,54.20
2018-05-14T14:10:33.045Z,54.40
2018-05-14T14:13:00.571Z,53.80
2018-05-14T14:15:28.177Z,55.50
2018-05-14T14:17:55.772Z,55.80
2018-05-14T14:20:23.310Z,53.60
2018-05-14T14:22:50.842Z,52.30
2018-05-14T14:25:19.184Z,53.50
2018-05-14T14:27:46.726Z,53.50
2018-05-14T14:30:14.264Z,53.90
2018-05-14T14:32:42.048Z,54.10
2018-05-14T14:35:10.337Z,54.70
2018-05-14T14:37:38.665Z,53.60
2018-05-14T14:40:06.339Z,53.50
2018-05-14T14:42:33.875Z,52.80
2018-05-14T14:45:02.172Z,52.90
2018-05-14T14:47:29.861Z,52.90
2018-05-14T14:49:57.416Z,53.50
2018-05-14T14:52:24.948Z,53.50
2018-05-14T14:54:52.778Z,53.50
2018-05-14T14:57:20.319Z,53.50
2018-05-14T14:59:48.624Z,53.10
2018-05-14T15:02:16.312Z,53.10
2018-05-14T15:04:43.902Z,54.20
2018-05-14T15:07:12.202Z,53.90
2018-05-14T15:09:39.820Z,54.30
2018-05-14T15:12:08.152Z,56.20
2018-05-14T15:14:35.706Z,56.20
2018-05-14T15:17:03.275Z,56.90
2018-05-14T15:19:30.820Z,56.60
2018-05-14T15:21:59.126Z,56.20
2018-05-14T15:24:26.810Z,56.20
2018-05-14T15:26:54.346Z,56.90
2018-05-14T15:29:21.928Z,55.70
2018-05-14T15:31:49.550Z,53.90
2018-05-14T15:34:17.983Z,54.20
2018-05-14T15:36:45.556Z,54.30
2018-05-14T15:39:13.909Z,53.40
2018-05-14T15:41:42.825Z,53.30
2018-05-14T15:44:10.408Z,53.20
2018-05-14T15:46:37.985Z,52.40
2018-05-14T15:49:05.538Z,52.90
2018-05-14T15:51:33.208Z,53.30
2018-05-14T15:54:00.781Z,54.30
2018-05-14T15:56:28.440Z,55.20
2018-05-14T15:58:55.904Z,55.80
2018-05-14T16:01:23.481Z,56.20
2018-05-14T16:03:51.013Z,56.40
2018-05-14T16:06:18.552Z,56.60
2018-05-14T16:08:46.121Z,57.10
2018-05-14T16:11:15.165Z,56.40
2018-05-14T16:13:42.700Z,56.40
2018-05-14T16:16:10.289Z,56.70
2018-05-14T16:18:38.580Z,55.30
2018-05-14T16:21:06.912Z,54.90
2018-05-14T16:23:34.498Z,54.80
2018-05-14T16:26:02.028Z,53.60
2018-05-14T16:28:29.569Z,52.80
2018-05-14T16:30:57.180Z,52.10
2018-05-14T16:33:24.746Z,51.70
2018-05-14T16:35:53.030Z,52.10
2018-05-14T16:38:20.620Z,52.00
2018-05-14T16:40:48.193Z,52.50
2018-05-14T16:43:15.763Z,53.00
2018-05-14T16:45:43.340Z,52.80
2018-05-14T16:48:10.874Z,53.40
2018-05-14T16:50:39.172Z,53.30
2018-05-14T16:53:07.518Z,53.30
2018-05-14T16:55:35.057Z,53.50
2018-05-14T16:58:02.585Z,53.80
2018-05-14T17:00:30.921Z,53.90
2018-05-14T17:02:58.450Z,53.90
2018-05-14T17:05:26.748Z,54.20
2018-05-14T17:07:55.163Z,53.00
2018-05-14T17:10:22.865Z,52.90
2018-05-14T17:12:50.385Z,52.80
2018-05-14T17:15:18.000Z,52.60
2018-05-14T17:17:45.564Z,52.70
2018-05-14T17:20:13.129Z,52.70
2018-05-14T17:22:40.891Z,52.10
2018-05-14T17:25:08.468Z,52.80
2018-05-14T17:27:36.034Z,52.70
2018-05-14T17:30:03.658Z,53.10
2018-05-14T17:32:31.203Z,53.60
2018-05-14T17:34:58.756Z,53.60
2018-05-14T17:37:26.421Z,54.00
2018-05-14T17:39:54.351Z,53.80
2018-05-14T17:42:22.006Z,54.30
2018-05-14T17:44:49.593Z,54.60
2018-05-14T17:47:17.142Z,55.40
2018-05-14T17:49:44.682Z,55.50
2018-05-14T17:52:12.300Z,55.90
2018-05-14T17:54:39.840Z,56.00
2018-05-14T17:57:07.379Z,56.10
2018-05-14T17:59:35.822Z,56.70
2018-05-14T18:02:03.357Z,56.70
2018-05-14T18:04:30.893Z,56.80
2018-05-14T18:06:58.477Z,57.20
2018-05-14T18:09:26.012Z,57.10
2018-05-14T18:11:53.550Z,57.50
2018-05-14T18:14:21.125Z,57.50
2018-05-14T18:16:48.686Z,57.50
2018-05-14T18:19:16.228Z,57.80
2018-05-14T18:21:44.725Z,58.20
2018-05-14T18:24:13.944Z,59.00
2018-05-14T18:26:46.047Z,59.30
2018-05-14T18:29:19.123Z,59.30
2018-05-14T18:31:53.032Z,60.30
2018-05-14T18:34:20.588Z,60.30
2018-05-14T18:36:48.135Z,60.70
2018-05-14T18:39:15.809Z,61.10
2018-05-14T18:41:43.541Z,61.60
2018-05-14T18:44:13.845Z,62.40
2018-05-14T18:46:41.420Z,62.40
2018-05-14T18:49:09.781Z,63.40
2018-05-14T18:51:38.181Z,63.30
2018-05-14T18:54:05.769Z,63.30
2018-05-14T18:56:34.114Z,63.60
2018-05-14T18:59:01.646Z,63.40
2018-05-14T19:01:29.994Z,63.70
2018-05-14T19:03:57.530Z,63.70
2018-05-14T19:06:25.078Z,63.70
2018-05-14T19:08:53.448Z,63.90
2018-05-14T19:11:26.509Z,64.60
2018-05-14T19:13:54.291Z,64.20
2018-05-14T19:16:27.512Z,64.30
2018-05-14T19:18:55.107Z,64.60
2018-05-14T19:21:22.658Z,64.70
2018-05-14T19:23:53.100Z,64.50
2018-05-14T19:26:21.400Z,65.10
2018-05-14T19:28:54.666Z,65.10
2018-05-14T19:31:22.249Z,65.20
2018-05-14T19:33:55.650Z,65.30
2018-05-14T19:36:23.324Z,65.40
2018-05-14T19:38:50.865Z,65.40
2018-05-14T19:41:19.213Z,65.70
2018-05-14T19:43:46.860Z,65.70
2018-05-14T19:46:14.401Z,65.70
2018-05-14T19:48:41.953Z,65.80
2018-05-14T19:51:09.517Z,66.00
2018-05-14T19:53:37.041Z,66.30
2018-05-14T19:56:04.572Z,66.40
2018-05-14T19:58:32.917Z,66.80
2018-05-14T20:01:00.536Z,66.80
2018-05-14T20:03:28.016Z,66.90
2018-05-14T20:05:55.598Z,67.00
2018-05-14T20:08:23.129Z,67.30
2018-05-14T20:10:50.671Z,67.30
2018-05-14T20:13:18.438Z,67.50
2018-05-14T20:15:45.976Z,67.70
2018-05-14T20:18:14.083Z,67.90
2018-05-14T20:20:41.665Z,68.20
2018-05-14T20:23:09.212Z,68.20
2018-05-14T20:25:36.760Z,68.30
2018-05-14T20:28:05.117Z,68.90
2018-05-14T20:30:32.650Z,68.80
2018-05-14T20:33:00.184Z,69.00
2018-05-14T20:35:27.756Z,69.30
2018-05-14T20:37:55.295Z,69.50
2018-05-14T20:40:22.833Z,69.60
2018-05-14T20:42:50.415Z,70.00
2018-05-14T20:45:18.022Z,70.20
2018-05-14T20:47:45.513Z,70.50
2018-05-14T20:50:13.089Z,70.70
2018-05-14T20:52:41.377Z,71.20
2018-05-14T20:55:09.685Z,71.30
2018-05-14T20:57:37.271Z,71.20
2018-05-14T21:00:04.848Z,71.50
2018-05-14T21:02:32.387Z,71.90
2018-05-14T21:05:00.727Z,72.20
2018-05-14T21:07:28.287Z,72.00
2018-05-14T21:09:55.818Z,72.30
2018-05-14T21:12:24.169Z,72.80
2018-05-14T21:14:51.857Z,72.70
2018-05-14T21:17:19.265Z,73.00
2018-05-14T21:19:46.842Z,73.10
2018-05-14T21:22:14.375Z,73.00
2018-05-14T21:24:41.913Z,73.00
2018-05-14T21:27:09.482Z,73.30
2018-05-14T21:29:37.009Z,73.40
2018-05-14T21:32:05.304Z,73.60
2018-05-14T21:34:32.877Z,73.50
2018-05-14T21:37:00.414Z,73.70
2018-05-14T21:39:27.953Z,73.80
2018-05-14T21:41:55.525Z,74.00
2018-05-14T21:44:23.065Z,74.10
2018-05-14T21:46:50.602Z,74.50
2018-05-14T21:49:18.181Z,74.50
2018-05-14T21:51:46.470Z,74.90
2018-05-14T21:54:14.455Z,74.80
2018-05-14T21:56:42.795Z,75.10
2018-05-14T21:59:10.327Z,75.10
2018-05-14T22:01:38.654Z,75.40
2018-05-14T22:04:06.227Z,75.40
2018-05-14T22:06:33.760Z,75.20
2018-05-14T22:09:02.062Z,75.20
2018-05-14T22:11:29.649Z,75.20
2018-05-14T22:13:57.241Z,75.20
2018-05-14T22:16:24.769Z,75.40
2018-05-14T22:18:52.370Z,75.40
2018-05-14T22:21:19.892Z,75.50
2018-05-14T22:23:48.289Z,75.40
2018-05-14T22:26:15.836Z,75.30
2018-05-14T22:28:43.361Z,75.70
2018-05-14T22:31:10.897Z,75.60
2018-05-14T22:33:39.228Z,76.30
2018-05-14T22:36:06.755Z,76.30
2018-05-14T22:38:35.041Z,76.40
2018-05-14T22:41:03.378Z,76.90
2018-05-14T22:43:30.916Z,77.60
2018-05-14T22:45:59.205Z,77.80
2018-05-14T22:48:27.549Z,78.00
2018-05-14T22:50:55.077Z,77.90
2018-05-14T22:53:22.622Z,78.30
2018-05-14T22:55:50.969Z,79.10
2018-05-14T22:58:18.504Z,79.10
2018-05-14T23:00:46.032Z,79.20
2018-05-14T23:03:13.615Z,79.40
2018-05-14T23:05:41.145Z,79.40
2018-05-14T23:08:08.670Z,79.70
2018-05-14T23:10:37.009Z,80.70
2018-05-14T23:13:04.549Z,80.00
2018-05-14T23:15:32.075Z,80.30
2018-05-14T23:17:59.646Z,80.50
2018-05-14T23:20:27.180Z,80.80
2018-05-14T23:22:54.713Z,81.00
2018-05-14T23:25:23.049Z,81.40
2018-05-14T23:27:50.584Z,81.40
2018-05-14T23:30:18.878Z,82.10
2018-05-14T23:32:46.465Z,82.00
2018-05-14T23:35:14.912Z,82.20
2018-05-14T23:37:42.449Z,82.30
2018-05-14T23:40:10.033Z,82.60
2018-05-14T23:42:37.581Z,83.40
2018-05-14T23:45:05.112Z,84.00
2018-05-14T23:47:33.449Z,85.10
2018-05-14T23:50:01.001Z,85.10
2018-05-14T23:52:28.532Z,85.70
2018-05-14T23:54:56.101Z,86.30
2018-05-14T23:57:23.636Z,87.00
2018-05-14T23:59:51.185Z,87.40
